Time;durP1;ratioP1;P1;durP2;ratioP2;P2;SDS_P1;SDS_P2;PMS_P1;PMS_P2;Temp;Humidity;BMP_temperature;BMP_pressure;BME280_temperature;BME280_humidity;BME280_pressure;Samples;Min_cycle;Max_cycle;Signal;HPM_P1;HPM_P2
2022/04/05 00:01:19;;;;;;;10.60;5.50;;;4.80;99.90;;;;;;5003161;28;20386;-78
2022/04/05 00:03:45;;;;;;;11.68;6.55;;;4.80;99.90;;;;;;5004815;28;20031;-78
2022/04/05 00:06:10;;;;;;;7.82;5.63;;;4.90;99.90;;;;;;5003685;28;20040;-78
2022/04/05 00:08:36;;;;;;;11.50;5.82;;;4.90;99.90;;;;;;5003460;28;20533;-78
2022/04/05 00:11:02;;;;;;;9.40;5.32;;;4.90;99.90;;;;;;5005725;28;20029;-78
2022/04/05 00:13:27;;;;;;;11.23;5.72;;;4.90;99.90;;;;;;5004672;28;20030;-77
2022/04/05 00:15:53;;;;;;;14.57;5.93;;;4.90;99.90;;;;;;5003911;28;20038;-77
2022/04/05 00:18:19;;;;;;;10.32;5.50;;;5.00;99.90;;;;;;5004084;28;20018;-78
2022/04/05 00:20:45;;;;;;;10.10;5.28;;;4.90;99.90;;;;;;5000939;28;20113;-77
2022/04/05 00:23:11;;;;;;;10.18;5.88;;;4.90;99.90;;;;;;5001863;28;20116;-77
2022/04/05 00:25:37;;;;;;;8.75;5.43;;;4.90;99.90;;;;;;5001556;28;20052;-76
2022/04/05 00:28:03;;;;;;;9.50;5.45;;;5.00;99.90;;;;;;5002373;28;20103;-77
2022/04/05 00:30:29;;;;;;;8.15;5.43;;;5.00;99.90;;;;;;5005268;28;20029;-76
2022/04/05 00:32:54;;;;;;;8.73;5.63;;;5.00;99.90;;;;;;5003154;28;20031;-78
2022/04/05 00:35:21;;;;;;;9.02;5.32;;;5.00;99.90;;;;;;4999739;28;20060;-78
2022/04/05 00:37:48;;;;;;;8.55;4.88;;;5.00;99.90;;;;;;5000917;28;20022;-79
2022/04/05 00:40:14;;;;;;;7.68;5.28;;;5.00;99.90;;;;;;5000691;28;20018;-79
2022/04/05 00:42:39;;;;;;;9.70;5.13;;;5.00;99.90;;;;;;5003631;28;20109;-78
2022/04/05 00:45:07;;;;;;;10.60;5.63;;;5.00;99.90;;;;;;5001903;28;20117;-78
2022/04/05 00:47:34;;;;;;;9.13;5.45;;;5.00;99.90;;;;;;5002603;28;20034;-78
2022/04/05 00:50:00;;;;;;;9.95;5.85;;;5.00;99.90;;;;;;5004341;28;20093;-77
2022/04/05 00:52:27;;;;;;;9.70;5.78;;;5.00;99.90;;;;;;5001290;28;20040;-77
2022/04/05 00:54:54;;;;;;;10.63;5.45;;;5.00;99.90;;;;;;5006122;28;20080;-77
2022/04/05 00:57:21;;;;;;;7.20;4.78;;;5.00;99.90;;;;;;5006240;28;20030;-76
2022/04/05 00:59:52;;;;;;;9.10;5.53;;;5.00;99.90;;;;;;5006553;28;20022;-77
2022/04/05 01:02:20;;;;;;;8.88;5.32;;;5.00;99.90;;;;;;5005290;28;20037;-77
2022/04/05 01:04:47;;;;;;;9.35;4.88;;;5.00;99.90;;;;;;5004033;28;20478;-78
2022/04/05 01:07:23;;;;;;;7.90;4.97;;;5.10;99.90;;;;;;5005294;28;20117;-78
2022/04/05 01:09:53;;;;;;;11.35;5.75;;;5.00;99.90;;;;;;5009718;28;20450;-77
2022/04/05 01:12:20;;;;;;;8.35;4.97;;;5.10;99.90;;;;;;5006536;28;20042;-77
2022/04/05 01:14:47;;;;;;;7.50;4.85;;;5.10;99.90;;;;;;5006881;28;20034;-78
2022/04/05 01:17:13;;;;;;;8.75;5.13;;;5.00;99.90;;;;;;5007198;28;20524;-77
2022/04/05 01:19:39;;;;;;;9.25;5.70;;;5.10;99.90;;;;;;5003722;28;20022;-77
2022/04/05 01:22:05;;;;;;;10.93;5.43;;;5.10;99.90;;;;;;5004162;28;20053;-77
2022/04/05 01:24:32;;;;;;;10.60;5.75;;;5.10;99.90;;;;;;5003767;28;20030;-77
2022/04/05 01:26:59;;;;;;;9.07;5.07;;;5.10;99.90;;;;;;5005673;28;20434;-76
2022/04/05 01:29:28;;;;;;;9.90;6.07;;;5.10;99.90;;;;;;5021682;23;20036;-71
2022/04/05 01:32:07;;;;;;;10.98;5.93;;;5.10;99.90;;;;;;5006629;28;20061;-71
2022/04/05 01:34:34;;;;;;;8.98;5.03;;;5.20;99.90;;;;;;5008210;28;20021;-72
2022/04/05 01:37:03;;;;;;;9.43;5.47;;;5.10;99.90;;;;;;5013283;28;20148;-71
2022/04/05 01:39:31;;;;;;;9.05;5.32;;;5.10;99.90;;;;;;5013427;28;20080;-72
2022/04/05 01:42:03;;;;;;;9.15;5.60;;;5.20;99.90;;;;;;5013696;28;20022;-71
2022/04/05 01:44:31;;;;;;;10.95;5.78;;;5.20;99.90;;;;;;4996104;28;20030;-71
2022/04/05 01:46:57;;;;;;;7.82;4.65;;;5.20;99.90;;;;;;5003616;28;20144;-73
2022/04/05 01:49:23;;;;;;;9.20;5.20;;;5.10;99.90;;;;;;5003865;28;20104;-72
2022/04/05 01:51:49;;;;;;;8.90;5.40;;;5.10;99.90;;;;;;5021132;28;20462;-73
2022/04/05 01:54:17;;;;;;;7.78;5.18;;;5.20;99.90;;;;;;5014110;28;20080;-75
2022/04/05 01:56:51;;;;;;;10.05;5.63;;;5.10;99.90;;;;;;5013621;28;20025;-75
2022/04/05 01:59:20;;;;;;;8.30;4.93;;;5.10;99.90;;;;;;5001878;28;20030;-74
2022/04/05 02:01:46;;;;;;;9.65;5.60;;;5.20;99.90;;;;;;5002905;28;20069;-75
2022/04/05 02:04:13;;;;;;;8.48;5.20;;;5.20;99.90;;;;;;5002449;28;20121;-74
2022/04/05 02:06:40;;;;;;;11.48;6.00;;;5.10;99.90;;;;;;5002914;28;20030;-71
2022/04/05 02:09:06;;;;;;;12.20;6.38;;;5.20;99.90;;;;;;5010222;28;20475;-72
2022/04/05 02:11:32;;;;;;;10.50;5.60;;;5.10;99.90;;;;;;5032817;23;20077;-74
2022/04/05 02:13:58;;;;;;;9.27;5.30;;;5.10;99.90;;;;;;5023669;28;20496;-75
2022/04/05 02:16:25;;;;;;;10.57;5.57;;;5.20;99.90;;;;;;5023763;28;20053;-75
2022/04/05 02:18:50;;;;;;;10.88;5.63;;;5.10;99.90;;;;;;5032217;28;20021;-75
2022/04/05 02:21:16;;;;;;;9.48;5.25;;;5.20;99.90;;;;;;5028450;28;20029;-75
2022/04/05 02:23:42;;;;;;;7.95;5.13;;;5.20;99.90;;;;;;5026141;28;20061;-75
2022/04/05 02:26:11;;;;;;;10.07;5.90;;;5.20;99.90;;;;;;5025922;28;20548;-75
2022/04/05 02:28:38;;;;;;;9.80;5.57;;;5.20;99.90;;;;;;5024188;28;20032;-74
2022/04/05 02:31:04;;;;;;;9.20;5.72;;;5.20;99.90;;;;;;5026306;28;20061;-75
2022/04/05 02:33:30;;;;;;;8.15;5.43;;;5.20;99.90;;;;;;5026877;28;20108;-75
2022/04/05 02:35:55;;;;;;;7.85;5.35;;;5.20;99.90;;;;;;5024697;28;20044;-73
2022/04/05 02:38:21;;;;;;;8.32;5.03;;;5.20;99.90;;;;;;5028974;28;20099;-73
2022/04/05 02:40:47;;;;;;;8.63;5.20;;;5.20;99.90;;;;;;5029744;28;20021;-73
2022/04/05 02:43:13;;;;;;;10.38;5.50;;;5.20;99.90;;;;;;5030768;28;20033;-73
2022/04/05 02:45:39;;;;;;;7.90;5.13;;;5.20;99.90;;;;;;5029109;28;20038;-73
2022/04/05 02:48:04;;;;;;;10.13;5.60;;;5.20;99.90;;;;;;5028225;28;20477;-74
2022/04/05 02:50:30;;;;;;;7.57;5.45;;;5.20;99.90;;;;;;5028432;28;20113;-74
2022/04/05 02:52:56;;;;;;;8.95;5.47;;;5.20;99.90;;;;;;5026664;28;20421;-74
2022/04/05 02:55:22;;;;;;;10.10;6.45;;;5.20;99.90;;;;;;5032555;28;20032;-74
2022/04/05 02:57:49;;;;;;;8.27;5.07;;;5.20;99.90;;;;;;5025571;28;20095;-74
2022/04/05 03:00:17;;;;;;;8.35;5.38;;;5.20;99.90;;;;;;5027259;28;20021;-73
2022/04/05 03:02:43;;;;;;;8.52;5.13;;;5.20;99.90;;;;;;5023682;28;20091;-74
2022/04/05 03:05:10;;;;;;;8.57;5.40;;;5.20;99.90;;;;;;5028718;28;20033;-74
2022/04/05 03:07:37;;;;;;;10.45;5.60;;;5.20;99.90;;;;;;5026593;28;20112;-74
2022/04/05 03:10:08;;;;;;;8.95;5.70;;;5.30;99.90;;;;;;5030094;28;20023;-74
2022/04/05 03:12:35;;;;;;;11.07;6.30;;;5.20;99.90;;;;;;5031386;28;20026;-74
2022/04/05 03:15:02;;;;;;;13.82;6.07;;;5.30;99.90;;;;;;5027984;28;20393;-74
2022/04/05 03:17:28;;;;;;;11.02;5.55;;;5.30;99.90;;;;;;5032209;28;20418;-74
2022/04/05 03:19:53;;;;;;;13.32;6.22;;;5.30;99.90;;;;;;5028880;28;20064;-74
2022/04/05 03:22:20;;;;;;;10.30;6.50;;;5.20;99.90;;;;;;5030479;28;20025;-74
2022/04/05 03:24:46;;;;;;;8.63;5.20;;;5.30;99.90;;;;;;5033283;28;20033;-74
2022/04/05 03:27:11;;;;;;;7.05;5.13;;;5.30;99.90;;;;;;5030518;28;20036;-73
2022/04/05 03:29:37;;;;;;;10.05;5.53;;;5.30;99.90;;;;;;5022866;28;20033;-73
2022/04/05 03:32:03;;;;;;;9.30;5.65;;;5.30;99.90;;;;;;5026796;28;20029;-74
2022/04/05 03:34:29;;;;;;;9.45;5.40;;;5.30;99.90;;;;;;5028840;28;20026;-74
2022/04/05 03:36:55;;;;;;;9.80;5.57;;;5.30;99.90;;;;;;5027309;28;20029;-73
2022/04/05 03:39:21;;;;;;;8.68;5.53;;;5.30;99.90;;;;;;5023316;28;20025;-74
2022/04/05 03:41:47;;;;;;;10.73;5.25;;;5.30;99.90;;;;;;5028526;28;20040;-74
2022/04/05 03:44:13;;;;;;;11.93;5.38;;;5.30;99.90;;;;;;5031699;28;20416;-73
2022/04/05 03:46:39;;;;;;;8.60;5.75;;;5.30;99.90;;;;;;5030289;28;20033;-75
2022/04/05 03:49:05;;;;;;;8.10;5.35;;;5.30;99.90;;;;;;5028602;28;20139;-75
2022/04/05 03:51:31;;;;;;;9.82;5.75;;;5.30;99.90;;;;;;5028311;28;20029;-75
2022/04/05 03:53:57;;;;;;;11.18;5.45;;;5.40;99.90;;;;;;5027000;28;20056;-74
2022/04/05 03:56:23;;;;;;;8.75;5.07;;;5.30;99.90;;;;;;5027764;28;20033;-75
2022/04/05 03:58:49;;;;;;;7.82;5.13;;;5.30;99.90;;;;;;5025598;28;20033;-75
2022/04/05 04:01:15;;;;;;;7.82;5.07;;;5.30;99.90;;;;;;5022676;28;20393;-74
2022/04/05 04:03:41;;;;;;;8.50;4.90;;;5.30;99.90;;;;;;5025327;28;20025;-74
2022/04/05 04:06:06;;;;;;;10.38;5.68;;;5.40;99.90;;;;;;5022758;28;20079;-74
2022/04/05 04:08:32;;;;;;;8.63;5.30;;;5.40;99.90;;;;;;5028559;28;20266;-75
2022/04/05 04:10:58;;;;;;;9.77;5.38;;;5.40;99.90;;;;;;5020898;28;20032;-74
2022/04/05 04:13:24;;;;;;;9.20;5.57;;;5.40;99.90;;;;;;5025460;28;20036;-74
2022/04/05 04:15:49;;;;;;;7.95;4.78;;;5.40;99.90;;;;;;5028135;28;20025;-74
2022/04/05 04:18:15;;;;;;;9.60;5.28;;;5.40;99.90;;;;;;5024520;28;20064;-74
2022/04/05 04:20:44;;;;;;;8.85;5.68;;;5.40;99.90;;;;;;5027047;28;20193;-75
2022/04/05 04:23:11;;;;;;;9.75;5.60;;;5.40;99.90;;;;;;5024680;28;20057;-74
2022/04/05 04:25:37;;;;;;;10.25;5.20;;;5.40;99.90;;;;;;5029291;28;20021;-74
2022/04/05 04:28:07;;;;;;;11.60;5.50;;;5.40;99.90;;;;;;5026225;28;20033;-75
2022/04/05 04:30:33;;;;;;;9.05;5.53;;;5.40;99.90;;;;;;5032178;28;20022;-74
2022/04/05 04:33:00;;;;;;;9.18;5.20;;;5.40;99.90;;;;;;5033553;28;20025;-75
2022/04/05 04:35:26;;;;;;;10.27;5.38;;;5.50;99.90;;;;;;5031975;28;20037;-76
2022/04/05 04:37:52;;;;;;;10.98;5.75;;;5.50;99.90;;;;;;5028471;28;20028;-75
2022/04/05 04:40:18;;;;;;;8.25;4.80;;;5.40;99.90;;;;;;5029257;28;20017;-74
2022/04/05 04:42:47;;;;;;;8.75;5.15;;;5.50;99.90;;;;;;5029697;28;20076;-75
2022/04/05 04:45:13;;;;;;;10.70;5.63;;;5.50;99.90;;;;;;5031171;28;20021;-74
2022/04/05 04:47:39;;;;;;;8.82;5.43;;;5.50;99.90;;;;;;5025761;28;20029;-74
2022/04/05 04:50:07;;;;;;;8.60;4.55;;;5.50;99.90;;;;;;5030196;28;20037;-74
2022/04/05 04:52:32;;;;;;;8.05;5.32;;;5.50;99.90;;;;;;5026595;28;20071;-74
2022/04/05 04:54:58;;;;;;;11.18;5.93;;;5.50;99.90;;;;;;5029740;28;20022;-75
2022/04/05 04:57:25;;;;;;;10.05;5.47;;;5.50;99.90;;;;;;5030469;28;20048;-75
2022/04/05 04:59:52;;;;;;;8.25;5.10;;;5.50;99.90;;;;;;5032030;28;20449;-75
2022/04/05 05:02:18;;;;;;;11.30;5.53;;;5.50;99.90;;;;;;5028723;28;20029;-74
2022/04/05 05:04:43;;;;;;;7.35;5.18;;;5.50;99.90;;;;;;5028566;28;20063;-74
2022/04/05 05:07:09;;;;;;;8.25;4.93;;;5.50;99.90;;;;;;5026537;28;20037;-74
2022/04/05 05:09:35;;;;;;;9.50;5.57;;;5.50;99.90;;;;;;5027259;28;20033;-75
2022/04/05 05:12:01;;;;;;;9.65;5.25;;;5.50;99.90;;;;;;5030350;28;20045;-73
2022/04/05 05:14:27;;;;;;;9.18;5.47;;;5.50;99.90;;;;;;5029252;28;20057;-72
2022/04/05 05:16:54;;;;;;;9.75;5.25;;;5.50;99.90;;;;;;5028622;28;20030;-73
2022/04/05 05:19:21;;;;;;;11.70;5.43;;;5.50;99.90;;;;;;5033412;28;20034;-73
2022/04/05 05:21:47;;;;;;;11.25;5.57;;;5.50;99.90;;;;;;5025021;28;20029;-73
2022/04/05 05:24:12;;;;;;;8.13;5.00;;;5.50;99.90;;;;;;5028474;28;20083;-73
2022/04/05 05:26:44;;;;;;;8.68;5.25;;;5.60;99.90;;;;;;5029937;28;20030;-73
2022/04/05 05:29:09;;;;;;;8.18;4.90;;;5.60;99.90;;;;;;5023885;28;20044;-73
2022/04/05 05:31:35;;;;;;;7.85;4.95;;;5.60;99.90;;;;;;5027468;28;20487;-73
2022/04/05 05:34:01;;;;;;;8.05;5.30;;;5.60;99.90;;;;;;5021357;28;20143;-73
2022/04/05 05:36:26;;;;;;;8.25;5.13;;;5.60;99.90;;;;;;5032012;28;20037;-73
2022/04/05 05:38:52;;;;;;;9.38;4.95;;;5.60;99.90;;;;;;5023208;28;20029;-73
2022/04/05 05:41:18;;;;;;;8.70;5.20;;;5.60;99.90;;;;;;5028614;28;20029;-73
2022/04/05 05:43:45;;;;;;;7.03;4.38;;;5.60;99.90;;;;;;5024225;28;20053;-73
2022/04/05 05:46:13;;;;;;;6.28;4.30;;;5.70;99.90;;;;;;5029352;28;20033;-73
2022/04/05 05:48:39;;;;;;;6.82;4.50;;;5.70;99.90;;;;;;5028860;28;20103;-73
2022/04/05 05:51:05;;;;;;;9.82;4.88;;;5.70;99.90;;;;;;5024452;28;20028;-72
2022/04/05 05:53:31;;;;;;;6.50;4.38;;;5.70;99.90;;;;;;5024789;28;20021;-72
2022/04/05 05:55:57;;;;;;;11.45;4.32;;;5.70;99.90;;;;;;5029184;28;20026;-72
2022/04/05 05:58:23;;;;;;;8.45;4.78;;;5.80;99.90;;;;;;5030882;28;20029;-72
2022/04/05 06:00:49;;;;;;;7.70;4.50;;;5.80;99.90;;;;;;5027175;28;20029;-74
2022/04/05 06:03:17;;;;;;;8.25;4.05;;;5.80;99.90;;;;;;5025665;28;20572;-74
2022/04/05 06:05:43;;;;;;;9.43;4.97;;;5.90;99.90;;;;;;5027003;28;20026;-73
2022/04/05 06:08:09;;;;;;;9.20;4.47;;;5.90;99.90;;;;;;5027443;28;20053;-72
2022/04/05 06:10:35;;;;;;;7.53;4.40;;;5.90;99.90;;;;;;5027485;28;20033;-73
2022/04/05 06:13:01;;;;;;;7.30;4.57;;;5.90;99.90;;;;;;5032316;28;20427;-73
2022/04/05 06:15:28;;;;;;;7.35;4.40;;;5.90;99.90;;;;;;5027662;28;20061;-72
2022/04/05 06:17:55;;;;;;;6.03;4.00;;;5.90;99.90;;;;;;5030255;28;20021;-72
2022/04/05 06:20:22;;;;;;;5.82;4.00;;;5.90;99.90;;;;;;5027078;28;20021;-73
2022/04/05 06:22:50;;;;;;;8.40;4.43;;;5.90;99.90;;;;;;5025417;28;20025;-74
2022/04/05 06:25:18;;;;;;;8.18;4.53;;;6.00;99.90;;;;;;5041692;28;20033;-74
2022/04/05 06:27:44;;;;;;;8.38;3.88;;;6.00;99.90;;;;;;5027203;28;20037;-74
2022/04/05 06:30:12;;;;;;;5.93;3.85;;;6.10;99.90;;;;;;5031298;28;20335;-75
2022/04/05 06:32:38;;;;;;;5.97;3.50;;;6.10;99.90;;;;;;5027528;28;20053;-74
2022/04/05 06:35:06;;;;;;;6.85;3.17;;;6.20;99.90;;;;;;5026224;28;20052;-76
2022/04/05 06:37:32;;;;;;;6.68;3.72;;;6.20;99.90;;;;;;5026576;28;20021;-74
2022/04/05 06:39:57;;;;;;;5.72;3.88;;;6.20;99.90;;;;;;5026296;28;20083;-76
2022/04/05 06:42:26;;;;;;;6.93;4.10;;;6.30;99.90;;;;;;5028374;28;20037;-74
2022/04/05 06:44:55;;;;;;;6.75;3.78;;;6.30;99.90;;;;;;5022453;28;20067;-74
2022/04/05 06:47:21;;;;;;;6.70;3.20;;;6.40;99.90;;;;;;5029641;28;20029;-73
2022/04/05 06:49:47;;;;;;;8.50;3.53;;;6.40;99.90;;;;;;5029399;28;20702;-74
2022/04/05 06:52:13;;;;;;;6.75;4.00;;;6.40;99.90;;;;;;5025627;28;20742;-75
2022/04/05 06:54:38;;;;;;;7.70;3.85;;;6.50;99.90;;;;;;5025566;28;20029;-75
2022/04/05 06:57:04;;;;;;;6.45;3.88;;;6.50;99.90;;;;;;5026775;28;20036;-74
2022/04/05 06:59:30;;;;;;;7.00;3.88;;;6.50;99.90;;;;;;5025865;28;20508;-74
2022/04/05 07:01:56;;;;;;;7.70;4.20;;;6.50;99.90;;;;;;5025874;28;20105;-75
2022/04/05 07:04:22;;;;;;;8.30;3.80;;;6.60;99.90;;;;;;5026064;28;20112;-75
2022/04/05 07:06:47;;;;;;;6.32;4.10;;;6.60;99.90;;;;;;5026546;28;20021;-74
2022/04/05 07:09:13;;;;;;;8.23;3.60;;;6.60;99.90;;;;;;5025202;28;20453;-75
2022/04/05 07:11:38;;;;;;;6.18;3.35;;;6.60;99.90;;;;;;5028248;28;20394;-74
2022/04/05 07:14:04;;;;;;;5.05;3.75;;;6.70;99.90;;;;;;5027218;28;20079;-74
2022/04/05 07:16:30;;;;;;;6.32;3.65;;;6.70;99.90;;;;;;5026093;28;20033;-74
2022/04/05 07:18:55;;;;;;;8.65;3.88;;;6.80;99.90;;;;;;5032265;28;20029;-74
2022/04/05 07:21:21;;;;;;;8.85;4.25;;;6.80;99.90;;;;;;5026540;28;20025;-74
2022/04/05 07:23:48;;;;;;;6.32;3.83;;;6.80;99.90;;;;;;5027358;28;20025;-74
2022/04/05 07:26:13;;;;;;;6.00;3.35;;;6.90;99.90;;;;;;5027753;28;20021;-74
2022/04/05 07:28:45;;;;;;;7.45;3.92;;;7.00;99.90;;;;;;5025686;28;20035;-74
2022/04/05 07:31:11;;;;;;;5.80;3.55;;;7.00;99.90;;;;;;5017058;28;20037;-74
2022/04/05 07:33:36;;;;;;;6.13;3.45;;;7.10;99.90;;;;;;5021552;28;20036;-73
2022/04/05 07:36:02;;;;;;;7.32;3.47;;;7.10;99.90;;;;;;5021480;28;20086;-74
2022/04/05 07:38:30;;;;;;;7.38;3.95;;;7.20;99.90;;;;;;5022918;28;20033;-74
2022/04/05 07:40:56;;;;;;;7.60;3.28;;;7.20;99.90;;;;;;5023241;28;20392;-73
2022/04/05 07:43:24;;;;;;;10.02;3.67;;;7.30;99.90;;;;;;5028156;28;20025;-74
2022/04/05 07:45:51;;;;;;;5.88;3.67;;;7.30;99.90;;;;;;5016730;28;20571;-73
2022/04/05 07:48:19;;;;;;;7.40;3.90;;;7.30;99.90;;;;;;5022634;28;20037;-73
2022/04/05 07:50:45;;;;;;;8.23;3.75;;;7.30;99.90;;;;;;5023485;28;20022;-73
2022/04/05 07:53:11;;;;;;;8.20;3.72;;;7.30;99.90;;;;;;5025510;28;20048;-73
2022/04/05 07:55:37;;;;;;;7.97;3.70;;;7.30;99.90;;;;;;5028431;28;20025;-73
2022/04/05 07:58:02;;;;;;;7.32;3.80;;;7.30;99.90;;;;;;5027254;28;20549;-73
2022/04/05 08:00:28;;;;;;;5.78;3.60;;;7.30;99.90;;;;;;5027067;28;20052;-73
2022/04/05 08:02:54;;;;;;;11.60;4.00;;;7.40;99.90;;;;;;5025055;28;20108;-73
2022/04/05 08:05:20;;;;;;;10.73;3.97;;;7.40;99.90;;;;;;5029778;28;20127;-72
2022/04/05 08:07:46;;;;;;;9.13;3.17;;;7.50;99.90;;;;;;5022801;28;20034;-73
2022/04/05 08:10:13;;;;;;;6.40;3.70;;;7.50;99.90;;;;;;5030635;28;20104;-73
2022/04/05 08:12:47;;;;;;;8.23;4.45;;;7.60;99.90;;;;;;5060443;23;20532;-80
2022/04/05 08:15:19;;;;;;;7.15;3.70;;;7.60;99.90;;;;;;5027440;28;20452;-80
2022/04/05 08:17:46;;;;;;;6.03;3.67;;;7.70;99.90;;;;;;5013678;28;20506;-80
2022/04/05 08:20:13;;;;;;;10.57;3.20;;;7.70;99.90;;;;;;5058877;28;20025;-80
2022/04/05 08:22:38;;;;;;;6.65;3.95;;;7.80;99.90;;;;;;5046569;28;20075;-80
2022/04/05 08:25:05;;;;;;;5.07;3.58;;;7.80;99.90;;;;;;5048166;28;20025;-79
2022/04/05 08:27:30;;;;;;;6.07;3.25;;;7.80;99.90;;;;;;5044711;28;20041;-79
2022/04/05 08:29:56;;;;;;;7.90;3.67;;;7.80;99.90;;;;;;5036297;28;20072;-79
2022/04/05 08:32:22;;;;;;;5.03;3.28;;;7.90;99.90;;;;;;5047876;28;20079;-79
2022/04/05 08:34:47;;;;;;;8.13;3.80;;;7.90;99.90;;;;;;5041287;28;20025;-81
2022/04/05 08:37:13;;;;;;;10.40;3.67;;;8.00;99.90;;;;;;5045101;28;20052;-80
2022/04/05 08:39:40;;;;;;;9.07;4.28;;;8.00;99.90;;;;;;5045158;28;20033;-80
2022/04/05 08:42:07;;;;;;;8.30;3.53;;;8.00;99.90;;;;;;5048385;28;20469;-81
2022/04/05 08:44:33;;;;;;;6.75;3.80;;;8.00;99.90;;;;;;5044448;28;20094;-80
2022/04/05 08:47:03;;;;;;;19.15;4.30;;;8.00;99.90;;;;;;5044889;28;20025;-80
2022/04/05 08:49:31;;;;;;;10.23;3.33;;;8.00;99.90;;;;;;5045218;28;20034;-79
2022/04/05 08:51:57;;;;;;;10.57;3.40;;;8.10;99.90;;;;;;5042439;28;20052;-80
2022/04/05 08:54:23;;;;;;;7.30;3.90;;;8.10;99.90;;;;;;5045893;28;20037;-81
2022/04/05 08:56:50;;;;;;;7.35;3.70;;;8.10;99.90;;;;;;5046262;28;20025;-82
2022/04/05 08:59:16;;;;;;;8.43;3.30;;;8.10;99.90;;;;;;5040886;28;20080;-81
2022/04/05 09:01:43;;;;;;;6.60;4.03;;;8.10;99.90;;;;;;5043916;28;20025;-80
2022/04/05 09:04:10;;;;;;;8.57;3.97;;;8.10;99.90;;;;;;5045375;28;20393;-80
2022/04/05 09:06:36;;;;;;;7.57;3.80;;;8.10;99.90;;;;;;5046054;28;20389;-79
2022/04/05 09:09:09;;;;;;;9.43;3.78;;;8.00;99.90;;;;;;5046756;28;20029;-80
2022/04/05 09:11:36;;;;;;;8.80;4.30;;;8.00;99.90;;;;;;5046361;28;20452;-82
2022/04/05 09:14:04;;;;;;;8.63;4.50;;;8.00;99.90;;;;;;5047402;28;20025;-82
2022/04/05 09:16:32;;;;;;;6.30;3.72;;;8.10;99.90;;;;;;5046431;28;20501;-81
2022/04/05 09:18:59;;;;;;;6.25;3.92;;;8.10;99.90;;;;;;5043803;28;20032;-80
2022/04/05 09:21:26;;;;;;;7.82;4.15;;;8.10;99.90;;;;;;5035733;28;20049;-81
2022/04/05 09:23:52;;;;;;;5.95;3.58;;;8.10;99.90;;;;;;5045475;28;20123;-81
2022/04/05 09:26:19;;;;;;;7.15;3.90;;;8.20;99.90;;;;;;5038545;28;20087;-82
2022/04/05 09:28:50;;;;;;;6.53;4.05;;;8.20;99.90;;;;;;5037625;28;20021;-81
2022/04/05 09:31:21;;;;;;;9.43;4.22;;;8.20;99.90;;;;;;5041396;28;20468;-80
2022/04/05 09:34:13;;;;;;;6.93;3.80;;;8.30;99.90;;;;;;5044880;28;20056;-84
2022/04/05 09:36:43;;;;;;;8.88;4.80;;;8.40;99.90;;;;;;5043520;28;20029;-83
2022/04/05 09:39:15;;;;;;;6.45;4.07;;;8.60;99.90;;;;;;5041399;28;20065;-83
2022/04/05 09:41:41;;;;;;;7.97;4.15;;;8.80;99.90;;;;;;5042845;28;20068;-80
2022/04/05 09:44:07;;;;;;;7.75;3.83;;;8.80;99.90;;;;;;5045359;28;20061;-79
2022/04/05 09:46:33;;;;;;;5.88;3.47;;;9.00;99.90;;;;;;5040735;28;20480;-80
2022/04/05 09:49:10;;;;;;;7.95;4.40;;;9.00;99.90;;;;;;5046151;28;20025;-79
2022/04/05 09:51:44;;;;;;;9.70;4.22;;;9.10;99.90;;;;;;5059392;28;20043;-77
2022/04/05 09:54:30;;;;;;;6.72;3.85;;;9.10;99.90;;;;;;5042073;28;20025;-80
2022/04/05 09:57:00;;;;;;;7.15;3.65;;;9.20;99.90;;;;;;5036180;28;20025;-83
2022/04/05 09:59:46;;;;;;;6.03;3.95;;;9.30;99.90;;;;;;5042052;28;20028;-83
2022/04/05 10:02:15;;;;;;;7.05;3.58;;;9.30;99.90;;;;;;5042906;28;20025;-81
2022/04/05 10:05:06;;;;;;;7.78;3.83;;;9.30;99.90;;;;;;5038560;28;20108;-79
2022/04/05 10:07:33;;;;;;;6.85;3.58;;;9.30;99.90;;;;;;5039095;28;21518;-80
2022/04/05 10:10:01;;;;;;;10.98;4.65;;;9.30;99.90;;;;;;5039224;28;20422;-81
2022/04/05 10:12:27;;;;;;;6.18;3.65;;;9.20;99.90;;;;;;5044551;28;20025;-80
2022/04/05 10:14:54;;;;;;;6.60;3.25;;;9.20;99.90;;;;;;5040355;28;20036;-79
2022/04/05 10:17:24;;;;;;;9.43;4.30;;;9.20;99.90;;;;;;5042159;28;20017;-80
2022/04/05 10:19:50;;;;;;;10.07;3.80;;;9.20;99.90;;;;;;5038151;28;20021;-79
2022/04/05 10:22:18;;;;;;;8.20;4.60;;;9.20;99.90;;;;;;5045564;28;20028;-80
2022/04/05 10:24:48;;;;;;;5.75;3.50;;;9.20;99.90;;;;;;5045112;28;20020;-79
2022/04/05 10:27:16;;;;;;;7.25;4.13;;;9.20;99.90;;;;;;5041260;28;20025;-79
2022/04/05 10:29:42;;;;;;;5.88;3.35;;;9.20;99.90;;;;;;5043240;28;20107;-78
2022/04/05 10:32:28;;;;;;;10.32;3.90;;;9.30;99.90;;;;;;5040411;28;20123;-79
2022/04/05 10:35:05;;;;;;;8.85;4.05;;;9.30;99.90;;;;;;5042848;28;20248;-78
2022/04/05 10:37:35;;;;;;;8.73;4.00;;;9.40;99.90;;;;;;5043695;28;20057;-79
2022/04/05 10:40:01;;;;;;;7.03;4.07;;;9.40;99.90;;;;;;5042412;28;20025;-77
2022/04/05 10:42:40;;;;;;;7.45;3.70;;;9.40;99.90;;;;;;5039678;28;20037;-77
2022/04/05 10:45:13;;;;;;;5.85;3.38;;;9.40;99.90;;;;;;5043825;28;20549;-77
2022/04/05 10:48:01;;;;;;;6.78;4.10;;;9.40;99.90;;;;;;5043570;28;20036;-77
2022/04/05 10:50:27;;;;;;;8.90;4.13;;;9.40;99.90;;;;;;5033158;28;20025;-78
2022/04/05 10:53:12;;;;;;;6.13;3.70;;;9.40;99.90;;;;;;5039181;28;20482;-77
2022/04/05 10:56:07;;;;;;;7.38;3.47;;;9.50;99.90;;;;;;5036352;28;20036;-77
2022/04/05 10:58:41;;;;;;;7.93;3.30;;;9.50;99.90;;;;;;5042112;28;20382;-79
2022/04/05 11:01:18;;;;;;;10.45;3.83;;;9.50;99.90;;;;;;5040866;28;20067;-80
2022/04/05 11:04:09;;;;;;;7.15;3.40;;;9.50;99.90;;;;;;5042689;28;20036;-80
2022/04/05 11:07:00;;;;;;;8.27;3.72;;;9.50;99.90;;;;;;5041125;28;20041;-79
2022/04/05 11:09:33;;;;;;;10.75;3.88;;;9.50;99.90;;;;;;5044545;28;20025;-81
2022/04/05 11:12:09;;;;;;;5.93;3.67;;;9.50;99.90;;;;;;5039550;28;20083;-80
2022/04/05 11:14:51;;;;;;;6.47;3.40;;;9.60;99.90;;;;;;5042985;28;20116;-79
2022/04/05 11:17:20;;;;;;;7.00;4.05;;;9.60;99.90;;;;;;5039933;28;20026;-80
2022/04/05 11:19:51;;;;;;;7.68;3.72;;;9.60;99.90;;;;;;5043148;28;20032;-79
2022/04/05 11:22:20;;;;;;;14.05;4.20;;;9.70;99.90;;;;;;5041267;28;20032;-78
2022/04/05 11:25:07;;;;;;;12.27;3.97;;;9.60;99.90;;;;;;5043009;28;20064;-80
2022/04/05 11:27:48;;;;;;;10.43;4.13;;;9.60;99.90;;;;;;5045718;28;20040;-79
2022/04/05 11:30:26;;;;;;;5.55;3.65;;;9.60;99.90;;;;;;5044240;28;20024;-78
2022/04/05 11:33:14;;;;;;;6.30;3.40;;;9.50;99.90;;;;;;5039779;28;20055;-78
2022/04/05 11:35:58;;;;;;;6.63;3.50;;;9.40;99.90;;;;;;5041106;28;20029;-79
2022/04/05 11:38:26;;;;;;;5.05;3.42;;;9.40;99.90;;;;;;5043712;28;20608;-79
2022/04/05 11:41:00;;;;;;;5.95;3.10;;;9.40;99.90;;;;;;5038075;28;20381;-78
2022/04/05 11:43:30;;;;;;;7.18;3.63;;;9.30;99.90;;;;;;5051281;28;20033;-80
2022/04/05 11:46:04;;;;;;;6.50;3.22;;;9.30;99.90;;;;;;5048825;28;20021;-78
2022/04/05 11:48:30;;;;;;;6.28;3.88;;;9.20;99.90;;;;;;5046497;28;20026;-76
2022/04/05 11:51:00;;;;;;;5.85;2.83;;;9.20;99.90;;;;;;5050549;28;20029;-77
2022/04/05 11:53:30;;;;;;;4.85;3.00;;;9.20;99.90;;;;;;5035450;28;20369;-79
2022/04/05 11:56:09;;;;;;;6.15;3.60;;;9.20;99.90;;;;;;5038933;28;20017;-78
2022/04/05 11:58:37;;;;;;;6.60;3.33;;;9.20;99.90;;;;;;5034480;28;20029;-78
2022/04/05 12:01:04;;;;;;;5.75;3.38;;;9.20;99.90;;;;;;5045763;28;20017;-78
2022/04/05 12:03:44;;;;;;;7.80;3.55;;;9.20;99.90;;;;;;5038028;28;20099;-76
2022/04/05 12:06:09;;;;;;;6.65;3.35;;;9.20;99.90;;;;;;5040033;28;20686;-77
2022/04/05 12:08:35;;;;;;;7.15;3.55;;;9.30;99.90;;;;;;5035418;28;20029;-79
2022/04/05 12:11:01;;;;;;;5.70;3.00;;;9.30;99.90;;;;;;4992422;28;1170180;-77
2022/04/05 12:13:28;;;;;;;6.70;2.83;;;9.30;99.90;;;;;;5038639;28;20029;-77
2022/04/05 12:16:02;;;;;;;4.85;3.10;;;9.30;99.90;;;;;;5039246;28;20029;-77
2022/04/05 12:18:28;;;;;;;5.97;3.00;;;9.40;99.90;;;;;;5032282;28;20434;-78
2022/04/05 12:21:12;;;;;;;6.15;2.42;;;9.40;99.90;;;;;;5036316;28;20112;-80
2022/04/05 12:23:41;;;;;;;6.43;3.40;;;9.40;99.90;;;;;;5032472;28;20028;-80
2022/04/05 12:26:23;;;;;;;5.38;3.10;;;9.50;99.90;;;;;;5041224;28;20025;-81
2022/04/05 12:28:54;;;;;;;7.82;3.22;;;9.50;99.90;;;;;;5038632;28;20032;-78
2022/04/05 12:31:22;;;;;;;6.80;3.30;;;9.70;99.90;;;;;;5038607;28;20119;-78
2022/04/05 12:34:08;;;;;;;7.32;2.97;;;9.70;99.90;;;;;;5040154;28;20036;-77
2022/04/05 12:36:45;;;;;;;6.15;3.05;;;9.90;99.90;;;;;;5037839;28;20025;-78
2022/04/05 12:39:26;;;;;;;6.25;2.88;;;9.90;99.90;;;;;;5036269;28;20029;-80
2022/04/05 12:42:06;;;;;;;8.13;2.88;;;10.00;99.90;;;;;;5040798;28;20037;-82
2022/04/05 12:44:34;;;;;;;5.35;3.28;;;10.10;99.90;;;;;;5053214;28;20063;-79
2022/04/05 12:47:20;;;;;;;5.50;2.83;;;10.10;99.90;;;;;;5041181;28;20040;-79
2022/04/05 12:50:07;;;;;;;4.97;3.00;;;10.20;99.90;;;;;;5040044;28;20092;-78
2022/04/05 12:52:33;;;;;;;5.85;2.70;;;10.30;99.90;;;;;;5035297;28;20048;-78
2022/04/05 12:55:18;;;;;;;3.97;2.42;;;10.40;99.90;;;;;;5040867;28;20559;-78
2022/04/05 12:57:49;;;;;;;4.25;2.70;;;10.50;99.90;;;;;;5057581;28;20036;-78
2022/04/05 13:00:19;;;;;;;4.60;2.67;;;10.50;99.90;;;;;;5040953;28;20032;-78
2022/04/05 13:02:49;;;;;;;3.42;2.30;;;10.60;99.90;;;;;;5043823;28;20078;-78